sensor_id;sensor_type;location;lat;lon;timestamp;pressure;altitude;pressure_sealevel;temperature;humidity
25638;BME280;13496;51.040;13.680;2023-11-19T00:04:48;99807.22;;;18.10;56.34
25638;BME280;13496;51.040;13.680;2023-11-19T00:09:50;99776.69;;;18.09;56.42
25638;BME280;13496;51.040;13.680;2023-11-19T00:14:52;99754.88;;;18.08;56.32
25638;BME280;13496;51.040;13.680;2023-11-19T00:19:54;99761.75;;;18.09;55.96
25638;BME280;13496;51.040;13.680;2023-11-19T00:24:56;99763.56;;;18.09;55.99
25638;BME280;13496;51.040;13.680;2023-11-19T00:29:58;99732.44;;;18.06;56.15
25638;BME280;13496;51.040;13.680;2023-11-19T00:35:00;99736.50;;;18.08;56.25
25638;BME280;13496;51.040;13.680;2023-11-19T00:40:02;99734.06;;;18.07;55.81
25638;BME280;13496;51.040;13.680;2023-11-19T00:45:07;99726.19;;;18.07;56.25
25638;BME280;13496;51.040;13.680;2023-11-19T00:50:14;99711.44;;;18.06;55.93
25638;BME280;13496;51.040;13.680;2023-11-19T00:55:16;99703.38;;;18.07;56.06
25638;BME280;13496;51.040;13.680;2023-11-19T01:00:20;99690.59;;;18.04;56.20
25638;BME280;13496;51.040;13.680;2023-11-19T01:05:25;99682.72;;;18.04;56.10
25638;BME280;13496;51.040;13.680;2023-11-19T01:10:27;99666.97;;;18.04;56.07
25638;BME280;13496;51.040;13.680;2023-11-19T01:15:30;99637.09;;;18.05;55.81
25638;BME280;13496;51.040;13.680;2023-11-19T01:20:32;99628.41;;;18.05;55.96
25638;BME280;13496;51.040;13.680;2023-11-19T01:25:35;99623.34;;;18.03;56.02
25638;BME280;13496;51.040;13.680;2023-11-19T01:30:38;99616.66;;;18.01;55.84
25638;BME280;13496;51.040;13.680;2023-11-19T01:35:40;99600.53;;;18.04;55.97
25638;BME280;13496;51.040;13.680;2023-11-19T01:40:42;99593.03;;;18.01;56.01
25638;BME280;13496;51.040;13.680;2023-11-19T01:45:44;99585.16;;;18.01;55.92
25638;BME280;13496;51.040;13.680;2023-11-19T01:50:45;99564.16;;;18.01;56.00
25638;BME280;13496;51.040;13.680;2023-11-19T01:55:48;99555.66;;;17.99;55.95
25638;BME280;13496;51.040;13.680;2023-11-19T02:00:50;99542.56;;;17.99;55.77
25638;BME280;13496;51.040;13.680;2023-11-19T02:05:52;99513.66;;;17.99;55.96
25638;BME280;13496;51.040;13.680;2023-11-19T02:10:54;99519.28;;;17.96;56.03
25638;BME280;13496;51.040;13.680;2023-11-19T02:15:58;99506.97;;;17.96;55.83
25638;BME280;13496;51.040;13.680;2023-11-19T02:21:01;99488.59;;;17.96;56.10
25638;BME280;13496;51.040;13.680;2023-11-19T02:26:23;99465.16;;;17.95;55.84
25638;BME280;13496;51.040;13.680;2023-11-19T02:31:27;99455.28;;;17.97;55.80
25638;BME280;13496;51.040;13.680;2023-11-19T02:36:29;99441.53;;;17.95;55.58
25638;BME280;13496;51.040;13.680;2023-11-19T02:41:30;99439.09;;;17.93;55.96
25638;BME280;13496;51.040;13.680;2023-11-19T02:46:32;99426.63;;;17.95;55.90
25638;BME280;13496;51.040;13.680;2023-11-19T02:51:34;99408.25;;;17.95;55.62
25638;BME280;13496;51.040;13.680;2023-11-19T02:56:36;99416.28;;;17.94;55.66
25638;BME280;13496;51.040;13.680;2023-11-19T03:01:40;99387.41;;;17.94;55.84
25638;BME280;13496;51.040;13.680;2023-11-19T03:06:45;99376.13;;;17.93;55.68
25638;BME280;13496;51.040;13.680;2023-11-19T03:11:47;99363.81;;;17.94;55.88
25638;BME280;13496;51.040;13.680;2023-11-19T03:16:49;99357.75;;;17.93;55.78
25638;BME280;13496;51.040;13.680;2023-11-19T03:21:51;99352.28;;;17.95;55.81
25638;BME280;13496;51.040;13.680;2023-11-19T03:26:52;99333.69;;;17.89;55.86
25638;BME280;13496;51.040;13.680;2023-11-19T03:31:54;99338.78;;;17.91;55.53
25638;BME280;13496;51.040;13.680;2023-11-19T03:36:58;99333.53;;;17.91;55.93
25638;BME280;13496;51.040;13.680;2023-11-19T03:42:00;99317.78;;;17.91;55.52
25638;BME280;13496;51.040;13.680;2023-11-19T03:47:02;99295.13;;;17.90;55.64
25638;BME280;13496;51.040;13.680;2023-11-19T03:52:03;99273.34;;;17.89;55.61
25638;BME280;13496;51.040;13.680;2023-11-19T03:57:07;99269.91;;;17.89;55.77
25638;BME280;13496;51.040;13.680;2023-11-19T04:02:09;99264.66;;;17.89;55.80
25638;BME280;13496;51.040;13.680;2023-11-19T04:07:10;99254.97;;;17.89;55.68
25638;BME280;13496;51.040;13.680;2023-11-19T04:12:12;99242.66;;;17.90;55.48
25638;BME280;13496;51.040;13.680;2023-11-19T04:17:14;99242.84;;;17.88;55.61
25638;BME280;13496;51.040;13.680;2023-11-19T04:22:18;99247.91;;;17.90;55.68
25638;BME280;13496;51.040;13.680;2023-11-19T04:27:20;99247.09;;;17.89;55.54
25638;BME280;13496;51.040;13.680;2023-11-19T04:32:22;99226.09;;;17.89;55.77
25638;BME280;13496;51.040;13.680;2023-11-19T04:37:24;99227.09;;;17.88;55.55
25638;BME280;13496;51.040;13.680;2023-11-19T04:42:26;99218.44;;;17.88;55.74
25638;BME280;13496;51.040;13.680;2023-11-19T04:47:28;99211.38;;;17.88;55.74
25638;BME280;13496;51.040;13.680;2023-11-19T04:52:30;99198.25;;;17.88;55.81
25638;BME280;13496;51.040;13.680;2023-11-19T04:57:31;99187.75;;;17.88;55.65
25638;BME280;13496;51.040;13.680;2023-11-19T05:02:34;99194.59;;;17.89;55.53
25638;BME280;13496;51.040;13.680;2023-11-19T05:07:36;99178.69;;;17.91;55.50
25638;BME280;13496;51.040;13.680;2023-11-19T05:12:38;99178.84;;;17.89;55.41
25638;BME280;13496;51.040;13.680;2023-11-19T05:17:40;99169.38;;;17.88;55.64
25638;BME280;13496;51.040;13.680;2023-11-19T05:22:42;99152.63;;;17.89;55.62
25638;BME280;13496;51.040;13.680;2023-11-19T05:27:44;99145.94;;;17.87;55.35
25638;BME280;13496;51.040;13.680;2023-11-19T05:32:46;99143.72;;;17.84;55.83
25638;BME280;13496;51.040;13.680;2023-11-19T05:37:47;99138.28;;;17.85;55.33
25638;BME280;13496;51.040;13.680;2023-11-19T05:42:51;99137.66;;;17.83;55.44
25638;BME280;13496;51.040;13.680;2023-11-19T05:47:53;99122.53;;;17.85;55.53
25638;BME280;13496;51.040;13.680;2023-11-19T05:52:54;99129.78;;;17.83;55.47
25638;BME280;13496;51.040;13.680;2023-11-19T05:57:56;99122.75;;;17.84;55.65
25638;BME280;13496;51.040;13.680;2023-11-19T06:02:58;99116.66;;;17.83;55.61
25638;BME280;13496;51.040;13.680;2023-11-19T06:07:59;99100.91;;;17.83;55.64
25638;BME280;13496;51.040;13.680;2023-11-19T06:13:01;99085.16;;;17.83;55.40
25638;BME280;13496;51.040;13.680;2023-11-19T06:18:06;99078.94;;;17.84;55.56
25638;BME280;13496;51.040;13.680;2023-11-19T06:23:08;99061.38;;;17.85;55.36
25638;BME280;13496;51.040;13.680;2023-11-19T06:28:10;99044.00;;;17.84;55.46
25638;BME280;13496;51.040;13.680;2023-11-19T06:33:17;99043.00;;;17.85;55.23
25638;BME280;13496;51.040;13.680;2023-11-19T06:38:18;99051.06;;;17.83;55.56
25638;BME280;13496;51.040;13.680;2023-11-19T06:43:20;99057.94;;;17.84;55.25
25638;BME280;13496;51.040;13.680;2023-11-19T06:48:23;99048.03;;;17.86;55.53
25638;BME280;13496;51.040;13.680;2023-11-19T06:53:24;99053.50;;;17.85;55.45
25638;BME280;13496;51.040;13.680;2023-11-19T06:58:26;99050.06;;;17.84;55.35
25638;BME280;13496;51.040;13.680;2023-11-19T07:03:28;99044.81;;;17.84;55.01
25638;BME280;13496;51.040;13.680;2023-11-19T07:08:30;99059.75;;;17.84;55.34
25638;BME280;13496;51.040;13.680;2023-11-19T07:13:31;99071.06;;;17.84;55.44
25638;BME280;13496;51.040;13.680;2023-11-19T07:18:33;99068.63;;;17.83;55.57
25638;BME280;13496;51.040;13.680;2023-11-19T07:23:36;99083.38;;;17.84;55.44
25638;BME280;13496;51.040;13.680;2023-11-19T07:28:38;99074.66;;;17.83;55.22
25638;BME280;13496;51.040;13.680;2023-11-19T07:33:41;99057.94;;;17.84;55.51
25638;BME280;13496;51.040;13.680;2023-11-19T07:38:46;99057.72;;;17.86;55.63
25638;BME280;13496;51.040;13.680;2023-11-19T07:43:48;99056.91;;;17.85;55.68
25638;BME280;13496;51.040;13.680;2023-11-19T07:48:52;99061.16;;;17.86;55.36
25638;BME280;13496;51.040;13.680;2023-11-19T07:53:54;99057.53;;;17.87;55.33
25638;BME280;13496;51.040;13.680;2023-11-19T07:58:55;99038.16;;;17.88;55.23
25638;BME280;13496;51.040;13.680;2023-11-19T08:03:57;99055.13;;;17.93;55.17
25638;BME280;13496;51.040;13.680;2023-11-19T08:08:59;99080.56;;;17.92;55.48
25638;BME280;13496;51.040;13.680;2023-11-19T08:14:01;99072.88;;;17.90;55.41
25638;BME280;13496;51.040;13.680;2023-11-19T08:19:02;99034.34;;;17.91;55.34
25638;BME280;13496;51.040;13.680;2023-11-19T08:24:04;99041.19;;;17.92;55.14
25638;BME280;13496;51.040;13.680;2023-11-19T08:29:06;99018.38;;;17.99;54.82
25638;BME280;13496;51.040;13.680;2023-11-19T08:34:11;99021.59;;;18.08;54.68
25638;BME280;13496;51.040;13.680;2023-11-19T08:39:12;99023.81;;;18.11;54.95
25638;BME280;13496;51.040;13.680;2023-11-19T08:44:15;99035.75;;;18.13;54.72
25638;BME280;13496;51.040;13.680;2023-11-19T08:49:17;99044.84;;;18.18;54.83
25638;BME280;13496;51.040;13.680;2023-11-19T08:54:19;99033.94;;;18.21;54.83
25638;BME280;13496;51.040;13.680;2023-11-19T08:59:22;99040.97;;;18.20;54.37
25638;BME280;13496;51.040;13.680;2023-11-19T09:04:24;99059.78;;;18.17;54.34
25638;BME280;13496;51.040;13.680;2023-11-19T09:09:26;99070.28;;;18.17;54.17
25638;BME280;13496;51.040;13.680;2023-11-19T09:14:27;99061.78;;;18.15;54.46
25638;BME280;13496;51.040;13.680;2023-11-19T09:19:32;99071.50;;;18.14;54.07
25638;BME280;13496;51.040;13.680;2023-11-19T09:24:34;99075.94;;;18.14;54.58
25638;BME280;13496;51.040;13.680;2023-11-19T09:29:35;99081.38;;;18.12;54.06
25638;BME280;13496;51.040;13.680;2023-11-19T09:34:37;99074.28;;;18.13;54.66
25638;BME280;13496;51.040;13.680;2023-11-19T09:39:39;99066.22;;;18.14;54.89
25638;BME280;13496;51.040;13.680;2023-11-19T09:44:44;99069.66;;;18.15;54.44
25638;BME280;13496;51.040;13.680;2023-11-19T09:49:46;99073.91;;;18.16;54.30
25638;BME280;13496;51.040;13.680;2023-11-19T09:54:49;99077.16;;;18.18;54.43
25638;BME280;13496;51.040;13.680;2023-11-19T09:59:51;99074.31;;;18.20;53.87
25638;BME280;13496;51.040;13.680;2023-11-19T10:04:54;99072.69;;;18.19;54.04
25638;BME280;13496;51.040;13.680;2023-11-19T10:09:56;99062.19;;;18.19;54.51
25638;BME280;13496;51.040;13.680;2023-11-19T10:14:58;99065.84;;;18.18;54.72
25638;BME280;13496;51.040;13.680;2023-11-19T10:20:01;99061.38;;;18.18;54.44
25638;BME280;13496;51.040;13.680;2023-11-19T10:25:02;99058.56;;;18.20;54.54
25638;BME280;13496;51.040;13.680;2023-11-19T10:30:05;99065.63;;;18.19;54.59
25638;BME280;13496;51.040;13.680;2023-11-19T10:35:07;99059.34;;;18.20;54.63
25638;BME280;13496;51.040;13.680;2023-11-19T10:40:09;99063.63;;;18.21;54.92
25638;BME280;13496;51.040;13.680;2023-11-19T10:45:23;99057.94;;;18.24;54.75
25638;BME280;13496;51.040;13.680;2023-11-19T10:50:26;99046.03;;;18.28;54.91
25638;BME280;13496;51.040;13.680;2023-11-19T10:55:37;99049.25;;;18.30;54.62
25638;BME280;13496;51.040;13.680;2023-11-19T11:00:45;99061.38;;;18.31;54.65
25638;BME280;13496;51.040;13.680;2023-11-19T11:05:48;99056.13;;;18.31;54.50
25638;BME280;13496;51.040;13.680;2023-11-19T11:10:54;99047.25;;;18.32;54.55
25638;BME280;13496;51.040;13.680;2023-11-19T11:15:57;99042.19;;;18.31;54.23
25638;BME280;13496;51.040;13.680;2023-11-19T11:21:09;99045.63;;;18.31;54.58
25638;BME280;13496;51.040;13.680;2023-11-19T11:37:32;99052.50;;;18.32;54.36
25638;BME280;13496;51.040;13.680;2023-11-19T11:42:34;99045.63;;;18.31;54.23
25638;BME280;13496;51.040;13.680;2023-11-19T11:57:58;99025.84;;;18.29;53.73
25638;BME280;13496;51.040;13.680;2023-11-19T12:03:00;99036.94;;;18.31;54.46
25638;BME280;13496;51.040;13.680;2023-11-19T12:08:05;99039.56;;;18.31;54.38
25638;BME280;13496;51.040;13.680;2023-11-19T12:13:09;99036.53;;;18.34;54.77
25638;BME280;13496;51.040;13.680;2023-11-19T12:18:10;99022.59;;;18.33;54.05
25638;BME280;13496;51.040;13.680;2023-11-19T12:23:12;99016.94;;;18.36;54.86
25638;BME280;13496;51.040;13.680;2023-11-19T12:28:16;99003.59;;;18.38;54.57
25638;BME280;13496;51.040;13.680;2023-11-19T12:33:19;99005.41;;;18.37;53.08
25638;BME280;13496;51.040;13.680;2023-11-19T12:38:25;98991.06;;;18.40;54.55
25638;BME280;13496;51.040;13.680;2023-11-19T12:43:27;98991.66;;;18.42;54.47
25638;BME280;13496;51.040;13.680;2023-11-19T12:48:28;98984.81;;;18.41;53.30
25638;BME280;13496;51.040;13.680;2023-11-19T12:53:47;98992.69;;;18.41;53.63
25638;BME280;13496;51.040;13.680;2023-11-19T12:58:50;98987.81;;;18.45;54.49
25638;BME280;13496;51.040;13.680;2023-11-19T13:03:52;98986.81;;;18.46;54.63
25638;BME280;13496;51.040;13.680;2023-11-19T13:08:53;98984.56;;;18.49;54.87
25638;BME280;13496;51.040;13.680;2023-11-19T13:14:03;98981.38;;;18.47;54.89
25638;BME280;13496;51.040;13.680;2023-11-19T13:19:16;98977.50;;;18.50;54.72
25638;BME280;13496;51.040;13.680;2023-11-19T13:24:20;98980.97;;;18.50;54.75
25638;BME280;13496;51.040;13.680;2023-11-19T13:29:21;98983.59;;;18.50;54.58
25638;BME280;13496;51.040;13.680;2023-11-19T13:34:23;98986.00;;;18.52;54.21
25638;BME280;13496;51.040;13.680;2023-11-19T13:39:25;98984.16;;;18.52;54.32
25638;BME280;13496;51.040;13.680;2023-11-19T13:44:27;98974.47;;;18.53;53.97
25638;BME280;13496;51.040;13.680;2023-11-19T13:49:28;98978.91;;;18.52;54.64
25638;BME280;13496;51.040;13.680;2023-11-19T13:54:30;98979.72;;;18.53;54.33
25638;BME280;13496;51.040;13.680;2023-11-19T13:59:32;98984.16;;;18.52;54.41
25638;BME280;13496;51.040;13.680;2023-11-19T14:04:34;98994.47;;;18.54;54.70
25638;BME280;13496;51.040;13.680;2023-11-19T14:09:35;98993.47;;;18.55;54.68
25638;BME280;13496;51.040;13.680;2023-11-19T14:14:37;98988.22;;;18.55;54.86
25638;BME280;13496;51.040;13.680;2023-11-19T14:19:42;99002.31;;;18.60;53.16
25638;BME280;13496;51.040;13.680;2023-11-19T14:24:43;99009.19;;;18.68;53.67
25638;BME280;13496;51.040;13.680;2023-11-19T14:29:45;99006.78;;;18.67;53.36
25638;BME280;13496;51.040;13.680;2023-11-19T14:34:47;99012.84;;;18.74;53.20
25638;BME280;13496;51.040;13.680;2023-11-19T14:39:49;99014.44;;;18.75;52.40
25638;BME280;13496;51.040;13.680;2023-11-19T14:44:52;99003.13;;;18.74;52.36
25638;BME280;13496;51.040;13.680;2023-11-19T14:49:54;99007.19;;;18.77;52.31
25638;BME280;13496;51.040;13.680;2023-11-19T14:54:56;99009.59;;;18.78;52.11
25638;BME280;13496;51.040;13.680;2023-11-19T14:59:58;99014.03;;;18.78;52.34
25638;BME280;13496;51.040;13.680;2023-11-19T15:04:59;99006.75;;;18.80;52.51
25638;BME280;13496;51.040;13.680;2023-11-19T15:10:01;98992.59;;;18.81;52.78
25638;BME280;13496;51.040;13.680;2023-11-19T15:15:04;98997.88;;;18.81;52.55
25638;BME280;13496;51.040;13.680;2023-11-19T15:20:07;99004.50;;;18.83;52.09
25638;BME280;13496;51.040;13.680;2023-11-19T15:25:08;99007.13;;;18.83;53.04
25638;BME280;13496;51.040;13.680;2023-11-19T15:30:12;99007.97;;;18.84;54.12
25638;BME280;13496;51.040;13.680;2023-11-19T15:35:16;99004.28;;;18.92;54.42
25638;BME280;13496;51.040;13.680;2023-11-19T15:40:17;99015.41;;;18.94;53.71
25638;BME280;13496;51.040;13.680;2023-11-19T15:45:19;99004.69;;;18.95;53.97
25638;BME280;13496;51.040;13.680;2023-11-19T15:50:21;99011.56;;;18.96;53.70
25638;BME280;13496;51.040;13.680;2023-11-19T15:55:23;99003.84;;;18.95;53.82
25638;BME280;13496;51.040;13.680;2023-11-19T16:00:25;99010.75;;;18.96;54.10
25638;BME280;13496;51.040;13.680;2023-11-19T16:05:27;99018.81;;;19.01;54.08
25638;BME280;13496;51.040;13.680;2023-11-19T16:10:31;99012.34;;;19.03;53.50
25638;BME280;13496;51.040;13.680;2023-11-19T16:15:35;99010.50;;;19.04;53.68
25638;BME280;13496;51.040;13.680;2023-11-19T16:20:39;99014.75;;;19.05;54.29
25638;BME280;13496;51.040;13.680;2023-11-19T16:25:44;99003.63;;;19.03;53.83
25638;BME280;13496;51.040;13.680;2023-11-19T16:30:45;99005.47;;;19.02;53.97
25638;BME280;13496;51.040;13.680;2023-11-19T16:35:47;99019.41;;;19.03;53.89
25638;BME280;13496;51.040;13.680;2023-11-19T16:40:49;99006.28;;;19.03;54.12
25638;BME280;13496;51.040;13.680;2023-11-19T16:45:53;99013.13;;;19.04;53.90
25638;BME280;13496;51.040;13.680;2023-11-19T16:50:55;99014.53;;;19.06;53.92
25638;BME280;13496;51.040;13.680;2023-11-19T16:55:57;99022.63;;;19.05;54.62
25638;BME280;13496;51.040;13.680;2023-11-19T17:00:58;99025.25;;;19.05;54.34
25638;BME280;13496;51.040;13.680;2023-11-19T17:06:01;99028.91;;;19.04;54.46
25638;BME280;13496;51.040;13.680;2023-11-19T17:11:04;99016.38;;;19.06;54.34
25638;BME280;13496;51.040;13.680;2023-11-19T17:16:07;99011.53;;;19.03;53.92
25638;BME280;13496;51.040;13.680;2023-11-19T17:21:11;99019.00;;;19.06;54.17
25638;BME280;13496;51.040;13.680;2023-11-19T17:26:14;99025.25;;;19.05;54.62
25638;BME280;13496;51.040;13.680;2023-11-19T17:31:16;99026.88;;;19.06;54.26
25638;BME280;13496;51.040;13.680;2023-11-19T17:36:18;99030.50;;;19.05;54.84
25638;BME280;13496;51.040;13.680;2023-11-19T17:41:20;99035.78;;;19.05;54.51
25638;BME280;13496;51.040;13.680;2023-11-19T17:46:25;99042.06;;;19.04;54.25
25638;BME280;13496;51.040;13.680;2023-11-19T17:51:27;99034.97;;;19.04;54.32
25638;BME280;13496;51.040;13.680;2023-11-19T17:56:28;99031.53;;;19.04;54.17
25638;BME280;13496;51.040;13.680;2023-11-19T18:01:30;99038.00;;;19.01;54.40
25638;BME280;13496;51.040;13.680;2023-11-19T18:06:32;99032.75;;;19.01;53.41
25638;BME280;13496;51.040;13.680;2023-11-19T18:11:36;99031.94;;;19.01;54.02
25638;BME280;13496;51.040;13.680;2023-11-19T18:16:38;99032.97;;;19.00;53.99
25638;BME280;13496;51.040;13.680;2023-11-19T18:21:40;99047.53;;;19.02;54.63
25638;BME280;13496;51.040;13.680;2023-11-19T18:26:41;99040.44;;;19.03;54.44
25638;BME280;13496;51.040;13.680;2023-11-19T18:31:44;99040.44;;;19.03;54.56
25638;BME280;13496;51.040;13.680;2023-11-19T18:36:46;99042.06;;;19.04;54.18
25638;BME280;13496;51.040;13.680;2023-11-19T18:41:47;99051.75;;;19.03;53.91
25638;BME280;13496;51.040;13.680;2023-11-19T18:46:49;99044.28;;;19.07;54.56
25638;BME280;13496;51.040;13.680;2023-11-19T18:51:51;99043.66;;;19.05;54.58
25638;BME280;13496;51.040;13.680;2023-11-19T18:56:53;99050.56;;;19.06;54.81
25638;BME280;13496;51.040;13.680;2023-11-19T19:01:58;99046.69;;;19.08;54.93
25638;BME280;13496;51.040;13.680;2023-11-19T19:07:00;99031.31;;;19.05;54.88
25638;BME280;13496;51.040;13.680;2023-11-19T19:12:05;99057.19;;;19.08;54.12
25638;BME280;13496;51.040;13.680;2023-11-19T19:17:07;99042.03;;;19.10;54.83
25638;BME280;13496;51.040;13.680;2023-11-19T19:22:12;99041.22;;;19.10;55.46
25638;BME280;13496;51.040;13.680;2023-11-19T19:27:14;99036.16;;;19.08;54.67
25638;BME280;13496;51.040;13.680;2023-11-19T19:32:16;99041.66;;;19.07;55.02
25638;BME280;13496;51.040;13.680;2023-11-19T19:37:18;99037.41;;;19.06;55.04
25638;BME280;13496;51.040;13.680;2023-11-19T19:42:20;99047.09;;;19.05;55.43
25638;BME280;13496;51.040;13.680;2023-11-19T19:47:24;99059.44;;;19.05;55.28
25638;BME280;13496;51.040;13.680;2023-11-19T19:52:26;99067.31;;;19.05;55.79
25638;BME280;13496;51.040;13.680;2023-11-19T19:57:27;99070.16;;;19.03;56.20
25638;BME280;13496;51.040;13.680;2023-11-19T20:02:29;99058.66;;;18.98;54.15
25638;BME280;13496;51.040;13.680;2023-11-19T20:07:32;99066.53;;;18.98;55.58
25638;BME280;13496;51.040;13.680;2023-11-19T20:12:33;99061.28;;;18.98;54.96
25638;BME280;13496;51.040;13.680;2023-11-19T20:17:35;99068.59;;;18.96;55.33
25638;BME280;13496;51.040;13.680;2023-11-19T20:22:37;99069.00;;;18.93;55.73
25638;BME280;13496;51.040;13.680;2023-11-19T20:27:39;99067.97;;;18.94;55.45
25638;BME280;13496;51.040;13.680;2023-11-19T20:32:41;99071.63;;;18.93;55.71
25638;BME280;13496;51.040;13.680;2023-11-19T20:37:44;99079.50;;;18.93;55.33
25638;BME280;13496;51.040;13.680;2023-11-19T20:42:45;99087.59;;;18.91;55.39
25638;BME280;13496;51.040;13.680;2023-11-19T20:47:47;99074.66;;;18.90;55.84
25638;BME280;13496;51.040;13.680;2023-11-19T20:52:52;99074.47;;;18.91;55.45
25638;BME280;13496;51.040;13.680;2023-11-19T20:57:54;99080.31;;;18.86;55.43
25638;BME280;13496;51.040;13.680;2023-11-19T21:02:56;99069.41;;;18.90;55.80
25638;BME280;13496;51.040;13.680;2023-11-19T21:07:59;99070.41;;;18.89;55.56
25638;BME280;13496;51.040;13.680;2023-11-19T21:13:01;99065.16;;;18.89;55.82
25638;BME280;13496;51.040;13.680;2023-11-19T21:18:03;99065.16;;;18.89;55.91
25638;BME280;13496;51.040;13.680;2023-11-19T21:23:06;99071.00;;;18.91;55.69
25638;BME280;13496;51.040;13.680;2023-11-19T21:28:07;99059.91;;;18.89;56.19
25638;BME280;13496;51.040;13.680;2023-11-19T21:33:09;99063.75;;;18.86;55.80
25638;BME280;13496;51.040;13.680;2023-11-19T21:38:11;99057.69;;;18.85;56.07
25638;BME280;13496;51.040;13.680;2023-11-19T21:43:12;99057.69;;;18.85;56.30
25638;BME280;13496;51.040;13.680;2023-11-19T21:48:14;99061.91;;;18.86;55.82
25638;BME280;13496;51.040;13.680;2023-11-19T21:53:16;99063.75;;;18.86;55.42
25638;BME280;13496;51.040;13.680;2023-11-19T21:58:18;99059.50;;;18.85;56.03
25638;BME280;13496;51.040;13.680;2023-11-19T22:03:19;99051.22;;;18.81;55.97
25638;BME280;13496;51.040;13.680;2023-11-19T22:08:21;99047.56;;;18.82;56.08
25638;BME280;13496;51.040;13.680;2023-11-19T22:13:23;99046.16;;;18.80;56.28
25638;BME280;13496;51.040;13.680;2023-11-19T22:18:24;99038.09;;;18.81;56.39
25638;BME280;13496;51.040;13.680;2023-11-19T22:23:27;99047.97;;;18.79;56.05
25638;BME280;13496;51.040;13.680;2023-11-19T22:28:29;99039.53;;;18.77;55.87
25638;BME280;13496;51.040;13.680;2023-11-19T22:33:30;99033.47;;;18.77;55.97
25638;BME280;13496;51.040;13.680;2023-11-19T22:38:32;99030.03;;;18.76;56.05
25638;BME280;13496;51.040;13.680;2023-11-19T22:43:34;99026.56;;;18.76;56.21
25638;BME280;13496;51.040;13.680;2023-11-19T22:48:35;99025.56;;;18.77;56.44
25638;BME280;13496;51.040;13.680;2023-11-19T22:53:37;99026.38;;;18.77;56.63
25638;BME280;13496;51.040;13.680;2023-11-19T22:58:39;99022.72;;;18.78;56.35
25638;BME280;13496;51.040;13.680;2023-11-19T23:03:44;99016.88;;;18.76;56.12
25638;BME280;13496;51.040;13.680;2023-11-19T23:08:46;99020.31;;;18.77;56.65
25638;BME280;13496;51.040;13.680;2023-11-19T23:13:47;99024.16;;;18.74;55.08
25638;BME280;13496;51.040;13.680;2023-11-19T23:18:49;99028.38;;;18.75;55.91
25638;BME280;13496;51.040;13.680;2023-11-19T23:23:51;99020.50;;;18.75;56.11
25638;BME280;13496;51.040;13.680;2023-11-19T23:28:52;99023.13;;;18.75;56.13
25638;BME280;13496;51.040;13.680;2023-11-19T23:33:54;99024.78;;;18.76;56.09
25638;BME280;13496;51.040;13.680;2023-11-19T23:38:56;99010.00;;;18.75;56.10
25638;BME280;13496;51.040;13.680;2023-11-19T23:43:58;99028.78;;;18.72;56.46
25638;BME280;13496;51.040;13.680;2023-11-19T23:49:02;99024.94;;;18.68;55.83
25638;BME280;13496;51.040;13.680;2023-11-19T23:54:05;99024.75;;;18.70;56.33
25638;BME280;13496;51.040;13.680;2023-11-19T23:59:07;99032.63;;;18.70;55.67
